Terminal Aerodrome Forecast
Issued by NWS Blacksburg, VA

Home | Current Version | Previous Version | Text Only | Print | Product List | Glossary On
Versions: 1 2 3 4 5 6 7 8 9 10 11 12 13 14 15 16
000
FTUS41 KRNK 231135
TAFLYH
TAF
KLYH 231135Z 2312/2412 04008KT P6SM OVC035
     FM231400 05010KT P6SM -RA OVC020
      TEMPO 2315/2316 4SM SHRA BR OVC007
     FM231600 05009KT 6SM RA BR OVC020
     FM231800 03003KT 3SM RA BR OVC009
     FM232200 05008KT 4SM RA BR OVC011=

USA.gov is the U.S. government's official web portal to all federal, state and local government web resources and services.